Time;durP1;ratioP1;P1;durP2;ratioP2;P2;SDS_P1;SDS_P2;PMS_P1;PMS_P2;Temp;Humidity;BMP_temperature;BMP_pressure;BME280_temperature;BME280_humidity;BME280_pressure;Samples;Min_cycle;Max_cycle;Signal;HPM_P1;HPM_P2
2022/10/04 00:01:09;;;;;;;14.07;7.30;;;13.30;72.70;;;;;;5095212;28;20071;-77
2022/10/04 00:03:42;;;;;;;10.48;6.78;;;13.30;72.70;;;;;;5094936;28;20107;-77
2022/10/04 00:06:20;;;;;;;12.18;6.63;;;13.30;72.80;;;;;;5094757;28;20119;-77
2022/10/04 00:08:51;;;;;;;11.07;6.38;;;13.30;72.80;;;;;;5095145;28;20051;-77
2022/10/04 00:11:32;;;;;;;15.77;7.07;;;13.30;72.70;;;;;;5095421;28;20051;-77
2022/10/04 00:14:00;;;;;;;9.48;5.53;;;13.30;72.80;;;;;;5094976;28;20046;-77
2022/10/04 00:16:31;;;;;;;12.00;5.28;;;13.30;72.70;;;;;;5094742;28;20115;-77
2022/10/04 00:19:35;;;;;;;10.80;5.70;;;13.30;72.80;;;;;;5094643;28;20047;-77
2022/10/04 00:22:07;;;;;;;10.23;5.50;;;13.30;72.70;;;;;;5066781;28;20105;-77
2022/10/04 00:24:34;;;;;;;12.65;5.40;;;13.30;72.70;;;;;;5078063;28;20363;-77
2022/10/04 00:27:17;;;;;;;13.20;6.32;;;13.30;72.70;;;;;;5094514;28;20101;-77
2022/10/04 00:30:08;;;;;;;15.00;6.40;;;13.30;72.70;;;;;;5094738;28;20056;-77
2022/10/04 00:32:40;;;;;;;8.65;5.50;;;13.30;72.70;;;;;;5074659;28;20113;-77
2022/10/04 00:35:26;;;;;;;14.38;6.55;;;13.30;72.60;;;;;;5093617;28;20032;-77
2022/10/04 00:38:14;;;;;;;12.02;6.10;;;13.30;72.40;;;;;;5073388;28;20459;-77
2022/10/04 00:40:57;;;;;;;8.05;5.35;;;13.30;72.90;;;;;;5078234;28;20501;-77
2022/10/04 00:43:31;;;;;;;11.73;5.68;;;13.30;72.40;;;;;;5088119;28;20404;-77
2022/10/04 00:46:09;;;;;;;11.90;5.45;;;13.30;72.50;;;;;;5098946;28;20106;-77
2022/10/04 00:48:51;;;;;;;10.93;5.28;;;13.30;72.50;;;;;;5081421;28;20098;-77
2022/10/04 00:51:42;;;;;;;11.20;6.00;;;13.30;72.50;;;;;;5098827;28;20483;-76
2022/10/04 00:54:17;;;;;;;9.10;5.28;;;13.20;72.40;;;;;;5097208;28;20035;-76
2022/10/04 00:56:52;;;;;;;6.72;4.30;;;13.20;72.50;;;;;;5098520;28;20040;-77
2022/10/04 00:59:52;;;;;;;10.52;5.70;;;13.20;72.40;;;;;;5098591;28;20048;-76
2022/10/04 01:02:20;;;;;;;10.50;4.88;;;13.30;72.70;;;;;;5084037;28;20449;-77
2022/10/04 01:04:52;;;;;;;8.23;5.38;;;13.20;72.50;;;;;;5098126;28;20044;-77
2022/10/04 01:07:27;;;;;;;9.38;4.97;;;13.30;72.50;;;;;;5081376;28;20181;-78
2022/10/04 01:09:58;;;;;;;10.20;4.95;;;13.30;72.50;;;;;;5081141;28;20550;-77
2022/10/04 01:12:36;;;;;;;8.48;4.25;;;13.30;72.50;;;;;;5081139;28;20142;-78
2022/10/04 01:15:12;;;;;;;9.68;4.82;;;13.30;72.50;;;;;;5069187;28;20039;-77
2022/10/04 01:17:37;;;;;;;9.57;5.10;;;13.30;72.40;;;;;;5081434;28;20412;-77
2022/10/04 01:20:20;;;;;;;9.25;4.82;;;13.30;72.40;;;;;;5081574;28;20161;-77
2022/10/04 01:22:49;;;;;;;10.90;5.70;;;13.30;72.30;;;;;;5066220;28;20045;-77
2022/10/04 01:25:41;;;;;;;11.70;6.40;;;13.30;72.40;;;;;;5080448;28;20105;-77
2022/10/04 01:28:07;;;;;;;12.70;6.00;;;13.30;72.30;;;;;;5097906;28;20071;-77
2022/10/04 01:30:33;;;;;;;9.55;5.00;;;13.30;72.40;;;;;;5097767;28;20181;-77
2022/10/04 01:32:59;;;;;;;9.10;5.03;;;13.30;72.40;;;;;;5097644;28;20050;-78
2022/10/04 01:35:25;;;;;;;9.00;5.18;;;13.30;72.40;;;;;;5080424;28;20027;-77
2022/10/04 01:37:51;;;;;;;11.52;6.05;;;13.30;72.80;;;;;;5080375;28;20035;-77
2022/10/04 01:40:17;;;;;;;11.23;5.47;;;13.20;72.50;;;;;;5097129;28;20047;-77
2022/10/04 01:42:50;;;;;;;9.88;5.03;;;13.20;72.50;;;;;;5063922;28;20051;-76
2022/10/04 01:45:27;;;;;;;11.13;5.13;;;13.20;72.60;;;;;;5115140;28;20380;-76
2022/10/04 01:48:00;;;;;;;9.45;4.55;;;13.20;72.70;;;;;;5097395;28;20084;-77
2022/10/04 01:50:34;;;;;;;8.55;6.05;;;13.10;72.70;;;;;;5080388;28;20425;-77
2022/10/04 01:53:09;;;;;;;12.50;5.43;;;13.10;72.80;;;;;;5079984;28;20028;-76
2022/10/04 01:55:37;;;;;;;13.40;6.40;;;13.00;72.70;;;;;;5097161;28;20079;-76
2022/10/04 01:58:13;;;;;;;12.68;5.28;;;13.00;72.60;;;;;;5097220;28;20028;-77
2022/10/04 02:00:44;;;;;;;9.13;5.40;;;13.00;72.70;;;;;;5097352;28;20043;-77
2022/10/04 02:03:39;;;;;;;13.00;5.93;;;13.00;72.70;;;;;;5080404;28;20031;-76
2022/10/04 02:06:08;;;;;;;8.80;4.82;;;12.90;72.70;;;;;;5105081;28;20046;-77
2022/10/04 02:08:38;;;;;;;10.23;4.47;;;12.90;72.80;;;;;;5096998;28;20039;-77
2022/10/04 02:11:04;;;;;;;8.23;4.72;;;12.90;72.90;;;;;;5080312;28;20050;-77
2022/10/04 02:13:37;;;;;;;9.30;4.97;;;12.80;72.90;;;;;;5097281;28;20046;-76
2022/10/04 02:16:07;;;;;;;8.18;4.30;;;12.80;72.90;;;;;;5096838;28;20068;-76
2022/10/04 02:18:42;;;;;;;9.75;4.07;;;12.80;72.80;;;;;;5080284;28;20067;-76
2022/10/04 02:21:09;;;;;;;6.35;4.20;;;12.80;72.70;;;;;;5097043;28;20035;-77
2022/10/04 02:23:37;;;;;;;6.97;4.05;;;12.80;72.60;;;;;;5096494;28;20036;-77
2022/10/04 02:26:07;;;;;;;12.45;5.32;;;12.80;72.60;;;;;;5096522;28;20035;-77
2022/10/04 02:28:34;;;;;;;8.05;4.25;;;12.70;72.50;;;;;;5096858;28;20448;-77
2022/10/04 02:33:48;;;;;;;8.90;4.10;;;12.70;72.30;;;;;;5082021;28;20069;-77
2022/10/04 02:36:14;;;;;;;7.88;4.43;;;12.70;72.30;;;;;;5095377;28;20081;-77
2022/10/04 02:38:57;;;;;;;6.50;4.20;;;12.60;72.10;;;;;;5079720;28;20093;-77
2022/10/04 02:41:30;;;;;;;9.05;4.28;;;12.70;72.10;;;;;;5097041;28;20376;-77
2022/10/04 02:44:03;;;;;;;7.32;4.22;;;12.60;72.00;;;;;;5096273;28;20461;-77
2022/10/04 02:46:57;;;;;;;8.70;5.18;;;12.60;71.90;;;;;;5079189;28;20039;-77
2022/10/04 02:49:33;;;;;;;9.35;6.00;;;12.60;71.80;;;;;;5078515;28;20114;-77
2022/10/04 02:52:04;;;;;;;10.00;5.38;;;12.50;71.90;;;;;;5096531;28;20043;-77
2022/10/04 02:54:53;;;;;;;10.73;6.53;;;12.50;72.00;;;;;;5078530;28;20031;-77
2022/10/04 02:57:21;;;;;;;13.05;7.05;;;12.40;72.00;;;;;;5088172;28;20504;-77
2022/10/04 02:59:47;;;;;;;10.48;6.80;;;12.40;72.00;;;;;;5096812;28;20398;-77
2022/10/04 03:02:23;;;;;;;11.63;7.65;;;12.30;72.10;;;;;;5096229;28;20096;-77
2022/10/04 03:04:51;;;;;;;15.93;7.90;;;12.20;72.30;;;;;;5078295;28;20122;-77
2022/10/04 03:07:18;;;;;;;13.43;7.65;;;12.20;72.40;;;;;;5095871;28;20043;-77
2022/10/04 03:09:44;;;;;;;14.68;7.38;;;12.10;72.60;;;;;;5078725;28;20039;-77
2022/10/04 03:12:12;;;;;;;15.80;7.72;;;12.00;72.70;;;;;;5079068;28;20429;-76
2022/10/04 03:14:39;;;;;;;14.60;8.02;;;11.90;72.80;;;;;;5096034;28;20028;-77
2022/10/04 03:17:06;;;;;;;9.10;6.97;;;11.90;73.00;;;;;;5095571;28;20039;-77
2022/10/04 03:19:33;;;;;;;14.95;9.30;;;11.80;73.10;;;;;;5096083;28;20063;-77
2022/10/04 03:22:05;;;;;;;15.85;9.25;;;11.80;73.30;;;;;;5095973;28;20032;-77
2022/10/04 03:24:36;;;;;;;11.90;8.77;;;11.80;73.40;;;;;;5095093;28;20035;-77
2022/10/04 03:27:06;;;;;;;12.27;8.38;;;11.70;73.40;;;;;;5078306;28;20475;-77
2022/10/04 03:29:33;;;;;;;10.15;8.07;;;11.70;73.50;;;;;;5095391;28;20446;-77
2022/10/04 03:32:01;;;;;;;18.05;9.55;;;11.60;73.50;;;;;;5095677;28;20095;-77
2022/10/04 03:34:35;;;;;;;14.77;9.95;;;11.50;73.50;;;;;;5094988;28;20039;-77
2022/10/04 03:37:05;;;;;;;10.27;7.70;;;11.50;73.70;;;;;;5078518;28;20074;-77
2022/10/04 03:39:44;;;;;;;12.23;8.25;;;11.50;73.70;;;;;;5095479;28;20046;-77
2022/10/04 03:42:17;;;;;;;12.55;8.18;;;11.50;73.90;;;;;;5095380;28;20503;-77
2022/10/04 03:44:49;;;;;;;14.85;9.10;;;11.40;73.90;;;;;;5088769;28;20177;-77
2022/10/04 03:47:32;;;;;;;14.48;9.10;;;11.40;74.00;;;;;;5095659;28;20040;-76
2022/10/04 03:50:05;;;;;;;12.80;8.32;;;11.30;74.00;;;;;;5078290;28;20166;-76
2022/10/04 03:52:34;;;;;;;12.57;8.68;;;11.30;74.00;;;;;;5111975;28;20432;-76
2022/10/04 03:55:04;;;;;;;10.60;7.50;;;11.30;74.10;;;;;;5095099;28;20032;-76
2022/10/04 03:57:31;;;;;;;11.07;7.05;;;11.30;74.20;;;;;;5095195;28;20039;-76
2022/10/04 03:59:58;;;;;;;12.73;8.25;;;11.20;74.20;;;;;;5080093;28;20051;-76
2022/10/04 04:02:44;;;;;;;9.35;6.88;;;11.20;74.30;;;;;;5094994;28;20039;-76
2022/10/04 04:05:28;;;;;;;11.50;7.20;;;11.20;74.30;;;;;;5077976;28;20063;-76
2022/10/04 04:08:08;;;;;;;11.85;7.20;;;11.20;74.30;;;;;;5075133;28;20040;-76
2022/10/04 04:10:38;;;;;;;10.05;7.30;;;11.20;74.20;;;;;;5091821;28;20051;-76
2022/10/04 04:13:09;;;;;;;12.25;7.55;;;11.20;74.10;;;;;;5078146;28;20483;-77
2022/10/04 04:15:36;;;;;;;10.73;7.07;;;11.20;74.00;;;;;;5077977;28;20031;-77
2022/10/04 04:18:20;;;;;;;8.07;6.50;;;11.20;73.90;;;;;;5095377;28;20364;-77
2022/10/04 04:20:48;;;;;;;12.80;7.38;;;11.30;73.90;;;;;;5091412;28;20045;-77
2022/10/04 04:23:14;;;;;;;8.25;6.32;;;11.20;73.70;;;;;;5094599;28;20046;-77
2022/10/04 04:25:44;;;;;;;9.77;7.00;;;11.20;73.60;;;;;;5078009;28;20044;-77
2022/10/04 04:28:34;;;;;;;9.40;6.20;;;11.20;73.50;;;;;;5095003;28;20070;-77
2022/10/04 04:31:08;;;;;;;13.77;7.57;;;11.20;73.30;;;;;;5093956;28;20114;-77
2022/10/04 04:33:42;;;;;;;10.85;6.65;;;11.20;73.30;;;;;;5095091;28;20046;-77
2022/10/04 04:36:11;;;;;;;8.55;6.20;;;11.30;73.20;;;;;;5094739;28;20039;-77
2022/10/04 04:39:33;;;;;;;8.70;6.40;;;11.20;73.10;;;;;;5094945;28;20038;-77
2022/10/04 04:41:29;;;;;;;9.80;7.35;;;11.20;73.00;;;;;;5093932;28;20494;-77
2022/10/04 04:43:55;;;;;;;12.32;7.13;;;11.30;73.00;;;;;;5095215;28;20082;-77
2022/10/04 04:46:21;;;;;;;11.65;7.32;;;11.20;72.80;;;;;;5077781;28;20439;-77
2022/10/04 04:48:52;;;;;;;10.18;6.82;;;11.20;72.80;;;;;;5077722;28;20048;-76
2022/10/04 04:51:23;;;;;;;10.73;7.00;;;11.20;72.70;;;;;;5061708;28;20039;-78
2022/10/04 04:53:51;;;;;;;13.30;8.48;;;11.20;72.80;;;;;;5094708;28;20092;-77
2022/10/04 04:56:22;;;;;;;13.93;8.70;;;11.20;72.80;;;;;;5094990;28;20456;-77
2022/10/04 04:58:50;;;;;;;17.33;9.02;;;11.20;73.00;;;;;;5077477;28;20048;-77
2022/10/04 05:01:45;;;;;;;13.10;8.77;;;11.20;73.20;;;;;;5077538;28;20040;-76
2022/10/04 05:04:11;;;;;;;12.55;8.80;;;11.20;73.30;;;;;;5094451;28;20040;-77
2022/10/04 05:06:40;;;;;;;13.90;8.27;;;11.20;73.30;;;;;;5094308;28;20100;-76
2022/10/04 05:09:20;;;;;;;15.43;8.95;;;11.10;73.50;;;;;;5061159;28;20039;-77
2022/10/04 05:11:47;;;;;;;12.43;8.18;;;11.10;73.50;;;;;;5094112;28;20036;-77
2022/10/04 05:14:14;;;;;;;14.23;8.02;;;11.10;73.50;;;;;;5094234;28;20046;-77
2022/10/04 05:16:51;;;;;;;15.93;9.15;;;11.10;73.60;;;;;;5081476;28;20048;-77
2022/10/04 05:19:22;;;;;;;12.40;8.32;;;11.10;73.80;;;;;;5074436;28;20051;-77
2022/10/04 05:21:52;;;;;;;12.23;8.40;;;11.00;73.70;;;;;;5092298;28;20039;-76
2022/10/04 05:24:30;;;;;;;13.45;9.13;;;11.00;73.80;;;;;;5093540;28;20049;-77
2022/10/04 05:27:06;;;;;;;12.18;8.20;;;11.00;73.80;;;;;;5095191;28;20119;-76
2022/10/04 05:29:40;;;;;;;11.43;8.65;;;11.00;73.90;;;;;;5097776;28;20048;-76
2022/10/04 05:32:24;;;;;;;12.15;8.25;;;11.00;73.90;;;;;;5096885;28;20118;-77
2022/10/04 05:34:51;;;;;;;11.05;8.43;;;11.00;73.90;;;;;;5088584;28;20428;-77
2022/10/04 05:37:19;;;;;;;14.50;10.05;;;11.00;73.90;;;;;;5097439;28;20124;-76
2022/10/04 05:40:13;;;;;;;15.63;10.18;;;11.00;74.00;;;;;;5097687;28;20054;-76
2022/10/04 05:42:43;;;;;;;21.88;11.55;;;11.00;74.30;;;;;;5085396;28;20055;-76
2022/10/04 05:45:23;;;;;;;18.63;12.43;;;10.90;74.30;;;;;;5097089;28;20077;-76
2022/10/04 05:47:53;;;;;;;15.63;11.63;;;10.90;74.60;;;;;;5098295;28;20051;-76
2022/10/04 05:50:32;;;;;;;17.13;12.32;;;10.90;74.90;;;;;;5096337;28;20097;-76
2022/10/04 05:53:34;;;;;;;19.95;12.52;;;10.90;75.20;;;;;;5094304;28;20047;-76
2022/10/04 05:56:15;;;;;;;20.60;13.20;;;10.80;75.40;;;;;;5092082;28;20032;-75
2022/10/04 05:59:00;;;;;;;23.63;14.05;;;10.80;75.40;;;;;;5077596;28;20588;-75
2022/10/04 06:01:31;;;;;;;;;;;10.80;75.70;;;;;;5078400;28;20080;-80
2022/10/04 06:04:16;;;;;;;20.73;13.00;;;10.70;75.10;;;;;;5098041;28;20371;-76
2022/10/04 06:06:49;;;;;;;17.90;13.45;;;10.70;75.50;;;;;;5102266;28;20122;-76
2022/10/04 06:09:33;;;;;;;27.48;15.15;;;10.60;75.80;;;;;;5097372;28;20065;-75
2022/10/04 06:12:17;;;;;;;21.27;15.07;;;10.60;76.20;;;;;;5096349;28;20035;-74
2022/10/04 06:15:02;;;;;;;20.23;15.45;;;10.60;76.20;;;;;;5096611;28;20070;-74
2022/10/04 06:17:40;;;;;;;17.10;13.95;;;10.60;76.40;;;;;;5097026;28;20043;-74
2022/10/04 06:20:12;;;;;;;22.75;15.20;;;10.60;76.60;;;;;;5096803;28;20039;-74
2022/10/04 06:22:47;;;;;;;21.23;14.60;;;10.60;76.60;;;;;;5096389;28;20047;-74
2022/10/04 06:25:22;;;;;;;22.20;14.52;;;10.60;76.90;;;;;;5096884;28;20092;-74
2022/10/04 06:28:08;;;;;;;24.15;15.57;;;10.60;76.90;;;;;;5096576;28;20052;-74
2022/10/04 06:31:11;;;;;;;22.00;14.55;;;10.60;77.00;;;;;;5096567;28;20104;-74
2022/10/04 06:33:46;;;;;;;22.33;15.45;;;10.60;77.00;;;;;;5079312;28;20085;-74
2022/10/04 06:36:17;;;;;;;22.13;14.68;;;10.60;77.00;;;;;;5079623;28;20395;-74
2022/10/04 06:39:17;;;;;;;22.92;15.60;;;10.60;77.20;;;;;;5096079;28;20429;-74
2022/10/04 06:42:04;;;;;;;22.85;16.83;;;10.60;77.40;;;;;;5096289;28;20149;-74
2022/10/04 06:45:00;;;;;;;25.95;16.48;;;10.60;77.50;;;;;;5096685;28;20075;-74
2022/10/04 06:47:38;;;;;;;24.80;16.20;;;10.60;77.70;;;;;;5096165;28;20155;-74
2022/10/04 06:50:23;;;;;;;22.13;16.20;;;10.60;77.90;;;;;;5079322;28;20554;-74
2022/10/04 06:53:15;;;;;;;22.30;16.23;;;10.60;78.10;;;;;;5095947;28;20069;-74
2022/10/04 06:56:17;;;;;;;23.17;18.52;;;10.70;78.40;;;;;;5096075;28;20569;-74
2022/10/04 06:58:43;;;;;;;24.30;17.25;;;10.70;78.60;;;;;;5076171;28;20054;-74
2022/10/04 07:01:30;;;;;;;24.13;17.83;;;10.80;78.60;;;;;;5083710;28;20040;-74
2022/10/04 07:04:15;;;;;;;27.45;16.90;;;10.80;78.90;;;;;;5076034;28;20562;-74
2022/10/04 07:06:51;;;;;;;28.27;17.92;;;10.80;78.90;;;;;;5092290;28;20039;-74
2022/10/04 07:09:26;;;;;;;23.10;16.75;;;10.90;79.40;;;;;;5096363;28;20057;-74
2022/10/04 07:12:07;;;;;;;20.83;17.50;;;10.90;79.10;;;;;;5095651;28;20046;-74
2022/10/04 07:14:43;;;;;;;19.50;15.70;;;10.90;79.00;;;;;;5079298;28;20032;-74
2022/10/04 07:17:16;;;;;;;25.77;16.85;;;11.00;79.10;;;;;;5095508;28;20382;-74
2022/10/04 07:19:47;;;;;;;22.55;16.15;;;11.00;79.10;;;;;;5080328;28;20046;-74
2022/10/04 07:22:21;;;;;;;22.45;15.95;;;11.00;79.00;;;;;;5095815;28;20495;-74
2022/10/04 07:24:50;;;;;;;;;;;11.10;79.10;;;;;;5095940;28;20046;-74
2022/10/04 07:29:19;;;;;;;23.25;16.13;;;11.10;78.70;;;;;;5095608;28;19959;-74
2022/10/04 07:31:02;;;;;;;22.80;16.63;;;11.10;79.00;;;;;;5095314;28;20083;-74
2022/10/04 07:33:50;;;;;;;22.45;17.55;;;11.20;79.20;;;;;;5095714;28;20043;-74
2022/10/04 07:36:44;;;;;;;24.55;18.30;;;11.20;79.40;;;;;;5094850;28;20054;-74
2022/10/04 07:39:17;;;;;;;22.83;17.50;;;11.30;79.70;;;;;;5078261;28;20067;-74
2022/10/04 07:41:53;;;;;;;27.48;18.77;;;11.40;80.00;;;;;;5095400;28;20406;-74
2022/10/04 07:44:45;;;;;;;22.60;16.20;;;11.60;80.20;;;;;;5095418;28;20043;-74
2022/10/04 07:47:22;;;;;;;22.90;16.60;;;11.70;80.20;;;;;;5095198;28;20047;-75
2022/10/04 07:49:49;;;;;;;20.95;15.60;;;11.80;80.20;;;;;;5093921;28;20031;-75
2022/10/04 07:52:47;;;;;;;20.20;14.73;;;11.90;80.00;;;;;;5078151;28;20047;-75
2022/10/04 07:55:31;;;;;;;17.50;14.23;;;12.00;80.00;;;;;;5095433;28;20070;-75
2022/10/04 07:58:15;;;;;;;19.25;13.13;;;12.10;79.80;;;;;;5095169;28;20506;-75
2022/10/04 08:00:47;;;;;;;17.25;13.82;;;12.20;79.90;;;;;;5095087;28;20368;-75
2022/10/04 08:03:28;;;;;;;20.55;12.75;;;12.30;80.10;;;;;;5095324;28;20440;-75
2022/10/04 08:06:17;;;;;;;16.85;12.25;;;12.50;80.40;;;;;;5094851;28;20040;-75
2022/10/04 08:09:01;;;;;;;15.18;10.98;;;12.70;80.20;;;;;;5062799;28;20083;-75
2022/10/04 08:11:36;;;;;;;13.70;10.10;;;13.00;80.10;;;;;;5095277;28;20035;-75
2022/10/04 08:14:20;;;;;;;16.67;10.30;;;13.20;79.60;;;;;;5094880;28;20274;-75
2022/10/04 08:17:10;;;;;;;14.52;9.18;;;13.60;78.90;;;;;;5078092;28;20119;-75
2022/10/04 08:19:38;;;;;;;9.82;7.57;;;13.90;78.00;;;;;;5094643;28;20096;-75
2022/10/04 08:22:29;;;;;;;13.73;7.40;;;14.10;77.20;;;;;;5095060;28;20398;-75
2022/10/04 08:24:57;;;;;;;9.88;6.40;;;14.40;74.90;;;;;;5094828;28;20089;-75
2022/10/04 08:31:03;;;;;;;11.40;6.50;;;15.00;73.00;;;;;;5093263;28;20544;-76
2022/10/04 08:34:08;;;;;;;11.15;5.80;;;15.30;72.00;;;;;;5094731;28;20046;-75
2022/10/04 08:36:53;;;;;;;13.82;6.38;;;15.60;71.30;;;;;;5095047;28;20454;-75
2022/10/04 08:39:30;;;;;;;11.70;6.28;;;15.80;70.20;;;;;;5094504;28;20035;-75
2022/10/04 08:42:33;;;;;;;10.18;7.68;;;16.10;69.90;;;;;;5094930;28;20075;-76
2022/10/04 08:45:42;;;;;;;10.15;7.18;;;16.30;68.10;;;;;;5094996;28;20424;-76
2022/10/04 08:48:23;;;;;;;10.85;7.07;;;16.40;66.90;;;;;;5094682;28;20035;-76
2022/10/04 08:51:04;;;;;;;9.77;6.80;;;16.50;66.70;;;;;;5077581;28;20044;-75
2022/10/04 08:53:48;;;;;;;8.77;6.53;;;16.50;66.10;;;;;;5077742;28;20093;-75
2022/10/04 08:56:45;;;;;;;8.73;7.22;;;16.60;65.90;;;;;;5094888;28;20491;-75
2022/10/04 08:59:49;;;;;;;11.50;6.90;;;16.60;65.80;;;;;;5077096;28;20044;-75
2022/10/04 09:02:52;;;;;;;9.75;7.03;;;16.70;65.30;;;;;;5096603;28;20073;-75
2022/10/04 09:05:24;;;;;;;10.63;7.35;;;16.80;65.40;;;;;;5098285;28;20043;-75
2022/10/04 09:08:09;;;;;;;10.27;7.28;;;16.80;65.50;;;;;;5098151;28;20042;-75
2022/10/04 09:11:04;;;;;;;12.32;7.18;;;16.90;65.00;;;;;;5095679;28;20078;-75
2022/10/04 09:13:49;;;;;;;10.27;7.03;;;17.00;65.00;;;;;;5098458;28;20043;-75
2022/10/04 09:16:23;;;;;;;13.10;6.32;;;17.00;65.30;;;;;;5081493;28;20555;-74
2022/10/04 09:18:51;;;;;;;9.48;6.05;;;17.20;65.00;;;;;;5081092;28;20042;-75
2022/10/04 09:21:51;;;;;;;11.93;5.82;;;17.30;64.50;;;;;;5098549;28;20093;-74
2022/10/04 09:24:50;;;;;;;9.85;5.85;;;17.40;63.60;;;;;;5097866;28;20259;-74
2022/10/04 09:27:38;;;;;;;11.35;5.53;;;17.50;63.20;;;;;;5081487;28;20112;-74
2022/10/04 09:30:16;;;;;;;10.82;5.03;;;17.60;62.90;;;;;;5097544;28;20140;-75
2022/10/04 09:33:03;;;;;;;11.35;4.97;;;17.70;62.40;;;;;;5097919;28;20062;-74
2022/10/04 09:35:41;;;;;;;7.53;5.07;;;17.80;61.90;;;;;;5094130;28;20039;-74
2022/10/04 09:38:28;;;;;;;8.05;4.60;;;17.90;61.50;;;;;;5098024;28;20036;-75
2022/10/04 09:41:20;;;;;;;8.98;4.50;;;18.00;61.50;;;;;;5097082;28;20044;-74
2022/10/04 09:43:56;;;;;;;11.88;5.03;;;18.10;61.50;;;;;;5097553;28;20070;-74
2022/10/04 09:46:22;;;;;;;7.93;4.68;;;18.20;61.30;;;;;;5081140;28;20039;-74
2022/10/04 09:48:55;;;;;;;8.95;4.90;;;18.20;61.10;;;;;;5097414;28;20050;-74
2022/10/04 09:51:28;;;;;;;8.77;4.30;;;18.30;61.00;;;;;;5077806;28;20134;-75
2022/10/04 09:54:09;;;;;;;7.68;4.00;;;18.40;60.70;;;;;;5084518;28;20386;-74
2022/10/04 09:57:05;;;;;;;7.40;4.15;;;18.50;59.60;;;;;;5066566;28;20099;-74
2022/10/04 10:00:06;;;;;;;8.80;4.45;;;18.50;59.60;;;;;;5097028;28;20047;-74
2022/10/04 10:02:47;;;;;;;9.82;5.25;;;18.50;59.70;;;;;;5080672;28;20058;-74
2022/10/04 10:05:47;;;;;;;10.85;5.35;;;18.50;59.30;;;;;;5096876;28;20126;-74
2022/10/04 10:08:44;;;;;;;10.35;5.22;;;18.60;58.90;;;;;;5097412;28;20420;-74
2022/10/04 10:14:33;;;;;;;6.63;4.13;;;18.50;59.00;;;;;;5097000;28;20054;-74
2022/10/04 10:17:01;;;;;;;8.38;4.43;;;18.60;59.30;;;;;;5078858;28;20051;-74
2022/10/04 10:19:39;;;;;;;9.48;5.15;;;18.60;59.40;;;;;;5096625;28;20062;-74
2022/10/04 10:22:21;;;;;;;7.38;5.05;;;18.60;59.10;;;;;;5096931;28;20027;-74
2022/10/04 10:25:20;;;;;;;10.10;5.35;;;18.60;58.70;;;;;;5079492;28;20513;-74
2022/10/04 10:28:24;;;;;;;7.75;4.45;;;18.60;58.30;;;;;;5079274;28;20056;-74
2022/10/04 10:31:17;;;;;;;8.00;5.00;;;18.60;58.30;;;;;;5096883;28;20092;-74
2022/10/04 10:34:10;;;;;;;7.47;4.40;;;18.60;58.40;;;;;;5096766;28;20070;-74
2022/10/04 10:37:17;;;;;;;5.93;3.80;;;18.60;58.70;;;;;;5096478;28;20134;-74
2022/10/04 10:39:52;;;;;;;6.80;4.22;;;18.60;58.90;;;;;;5052138;28;20351;-73
2022/10/04 10:42:59;;;;;;;7.90;4.78;;;18.60;59.10;;;;;;5096579;28;20040;-74
2022/10/04 10:45:47;;;;;;;9.32;5.63;;;18.60;58.70;;;;;;5062024;28;20048;-74
2022/10/04 10:48:39;;;;;;;8.63;4.50;;;18.60;58.40;;;;;;5091512;28;20043;-73
2022/10/04 10:51:34;;;;;;;9.20;5.90;;;18.50;58.40;;;;;;5045504;28;20138;-73
2022/10/04 10:54:38;;;;;;;9.10;5.35;;;18.50;58.00;;;;;;5079158;28;20372;-74
2022/10/04 10:57:09;;;;;;;8.35;4.55;;;18.50;57.90;;;;;;5094897;28;20047;-74
2022/10/04 11:00:12;;;;;;;9.77;5.70;;;18.40;58.30;;;;;;5084129;28;20063;-74
2022/10/04 11:03:15;;;;;;;10.57;5.25;;;18.40;58.40;;;;;;5076245;28;20127;-74
2022/10/04 11:05:56;;;;;;;7.63;4.80;;;18.40;58.60;;;;;;5082639;28;20036;-74
2022/10/04 11:09:02;;;;;;;9.30;5.57;;;18.40;58.90;;;;;;5096050;28;20043;-74
2022/10/04 11:11:40;;;;;;;8.05;5.00;;;18.40;58.90;;;;;;5096109;28;20047;-74
2022/10/04 11:14:12;;;;;;;7.32;5.60;;;18.40;58.60;;;;;;5078741;28;20097;-74
2022/10/04 11:17:14;;;;;;;9.05;5.47;;;18.40;58.30;;;;;;5095847;28;20425;-74
2022/10/04 11:19:46;;;;;;;7.82;4.93;;;18.40;58.10;;;;;;5096062;28;20173;-73
2022/10/04 11:22:17;;;;;;;11.32;6.10;;;18.30;58.90;;;;;;5096006;28;20043;-73
2022/10/04 11:25:06;;;;;;;7.07;5.35;;;18.40;58.90;;;;;;5078294;28;20498;-74
2022/10/04 11:28:12;;;;;;;11.13;5.55;;;18.40;58.70;;;;;;5095368;28;20043;-73
2022/10/04 11:30:57;;;;;;;8.43;5.25;;;18.50;58.90;;;;;;5095404;28;20050;-74
2022/10/04 11:33:31;;;;;;;;;;;18.50;57.80;;;;;;5096065;28;20047;-73
2022/10/04 11:36:28;;;;;;;8.40;5.53;;;18.50;58.00;;;;;;5094713;28;19916;-73
2022/10/04 11:39:43;;;;;;;8.35;5.03;;;18.50;57.70;;;;;;5095785;28;20051;-74
2022/10/04 11:42:29;;;;;;;12.45;6.22;;;18.50;58.10;;;;;;5078386;28;20086;-73
2022/10/04 11:45:01;;;;;;;6.50;4.95;;;18.60;58.10;;;;;;5092118;28;20039;-73
2022/10/04 11:47:55;;;;;;;7.47;5.45;;;18.60;57.30;;;;;;5095428;28;20074;-73
2022/10/04 11:50:32;;;;;;;9.02;5.82;;;18.60;57.50;;;;;;5095381;28;20031;-73
2022/10/04 11:53:26;;;;;;;7.72;5.78;;;18.70;57.10;;;;;;5094543;28;20071;-73
2022/10/04 11:56:03;;;;;;;9.40;5.38;;;18.70;57.10;;;;;;5078955;28;20031;-73
2022/10/04 11:58:40;;;;;;;7.68;5.78;;;18.70;57.30;;;;;;5095139;28;20039;-74
2022/10/04 12:01:06;;;;;;;9.93;5.53;;;18.70;56.70;;;;;;5095157;28;20132;-73
2022/10/04 12:04:03;;;;;;;10.25;5.93;;;18.70;56.70;;;;;;5094588;28;20075;-74
2022/10/04 12:06:58;;;;;;;8.48;4.75;;;18.70;56.40;;;;;;5094867;28;20051;-74
2022/10/04 12:09:45;;;;;;;8.30;4.95;;;18.70;56.20;;;;;;5094437;28;20518;-74
2022/10/04 12:12:55;;;;;;;7.63;5.35;;;18.80;56.40;;;;;;5094970;28;20510;-74
2022/10/04 12:16:01;;;;;;;8.52;5.63;;;18.80;56.40;;;;;;5077721;28;20118;-74
2022/10/04 12:18:45;;;;;;;8.27;5.65;;;18.80;56.50;;;;;;5078059;28;20039;-74
2022/10/04 12:21:29;;;;;;;;;;;18.70;56.20;;;;;;5078630;28;20051;-74
2022/10/04 12:24:13;;;;;;;7.20;5.05;;;18.70;56.50;;;;;;5094762;28;20367;-74
2022/10/04 12:26:47;;;;;;;7.37;5.73;;;18.70;56.50;;;;;;5094725;28;20042;-74
2022/10/04 12:29:42;;;;;;;13.02;6.38;;;18.70;56.70;;;;;;5094674;28;20815;-74
2022/10/04 12:32:16;;;;;;;;;;;18.80;56.50;;;;;;5095339;28;20106;-74
2022/10/04 12:34:44;;;;;;;10.93;6.53;;;18.70;56.90;;;;;;5094223;28;19916;-74
2022/10/04 12:37:13;;;;;;;7.22;6.07;;;18.70;56.80;;;;;;5096442;28;20071;-74
2022/10/04 12:39:43;;;;;;;7.38;4.93;;;18.70;56.50;;;;;;5099016;28;20078;-74
2022/10/04 12:42:33;;;;;;;8.43;5.57;;;18.80;56.70;;;;;;5098977;28;20042;-74
2022/10/04 12:45:11;;;;;;;7.55;4.85;;;18.80;56.30;;;;;;5098969;28;20100;-74
2022/10/04 12:47:43;;;;;;;8.88;5.28;;;18.80;56.30;;;;;;5098763;28;20078;-74
2022/10/04 12:50:21;;;;;;;9.65;5.15;;;18.90;56.50;;;;;;5098649;28;20085;-74
2022/10/04 12:53:33;;;;;;;8.88;4.88;;;18.90;56.50;;;;;;5100220;28;20043;-74
2022/10/04 12:56:36;;;;;;;8.60;5.00;;;18.90;55.80;;;;;;5061032;28;20048;-74
2022/10/04 12:59:38;;;;;;;7.70;4.45;;;18.90;55.60;;;;;;5078559;28;20491;-74
2022/10/04 13:02:25;;;;;;;8.02;4.40;;;18.90;55.30;;;;;;5083030;28;20075;-74
2022/10/04 13:04:58;;;;;;;6.43;4.22;;;18.90;55.50;;;;;;5098699;28;20444;-74
2022/10/04 13:07:39;;;;;;;6.68;4.60;;;18.90;55.60;;;;;;5098066;28;20045;-74
2022/10/04 13:10:26;;;;;;;6.65;4.35;;;18.90;55.30;;;;;;5081767;28;20118;-73
2022/10/04 13:13:26;;;;;;;7.28;4.80;;;18.90;55.10;;;;;;5098007;28;20505;-74
2022/10/04 13:16:24;;;;;;;7.15;4.93;;;18.90;55.10;;;;;;5098277;28;20032;-74
2022/10/04 13:19:11;;;;;;;8.00;4.53;;;18.90;55.20;;;;;;5084835;28;20075;-73
2022/10/04 13:22:33;;;;;;;8.25;4.70;;;18.90;55.30;;;;;;5098280;28;20077;-74
2022/10/04 13:25:16;;;;;;;8.00;4.70;;;18.90;55.50;;;;;;5029664;28;20120;-74
2022/10/04 13:27:48;;;;;;;8.55;4.00;;;18.90;55.20;;;;;;5046817;28;20096;-74
2022/10/04 13:30:22;;;;;;;7.25;3.83;;;18.90;55.40;;;;;;5071981;28;20052;-74
2022/10/04 13:33:19;;;;;;;8.48;4.68;;;18.90;54.90;;;;;;5087493;28;20054;-74
2022/10/04 13:36:07;;;;;;;7.65;4.05;;;19.00;54.80;;;;;;5098080;28;20048;-73
2022/10/04 13:38:58;;;;;;;7.07;3.83;;;19.00;54.80;;;;;;5080954;28;20047;-73
2022/10/04 13:41:34;;;;;;;6.38;3.58;;;19.00;54.40;;;;;;5098168;28;20079;-73
2022/10/04 13:44:16;;;;;;;5.95;3.33;;;19.10;53.90;;;;;;5097300;28;20040;-73
2022/10/04 13:47:03;;;;;;;5.05;2.95;;;19.10;52.80;;;;;;5114597;28;20060;-74
2022/10/04 13:50:00;;;;;;;6.93;3.45;;;19.10;53.20;;;;;;5097369;28;20043;-74
2022/10/04 13:58:47;;;;;;;7.45;3.67;;;19.10;52.10;;;;;;5097529;28;20080;-74
2022/10/04 14:01:31;;;;;;;6.18;3.28;;;19.10;51.70;;;;;;5097376;28;20122;-74
2022/10/04 14:04:21;;;;;;;6.47;2.83;;;19.00;51.30;;;;;;5096871;28;20075;-74